sensor_id;sensor_type;location;lat;lon;timestamp;P1;durP1;ratioP1;P2;durP2;ratioP2
62623;SDS011;48699;0.000;0.000;2023-05-10T00:01:03;8.02;;;3.55;;
62623;SDS011;48699;0.000;0.000;2023-05-10T00:03:28;9.60;;;2.35;;
62623;SDS011;48699;0.000;0.000;2023-05-10T00:05:53;5.72;;;2.65;;
62623;SDS011;48699;0.000;0.000;2023-05-10T00:08:19;6.07;;;2.72;;
62623;SDS011;48699;0.000;0.000;2023-05-10T00:10:44;6.38;;;2.85;;
62623;SDS011;48699;0.000;0.000;2023-05-10T00:13:09;14.00;;;4.05;;
62623;SDS011;48699;0.000;0.000;2023-05-10T00:15:35;7.32;;;2.70;;
62623;SDS011;48699;0.000;0.000;2023-05-10T00:18:00;6.32;;;2.47;;
62623;SDS011;48699;0.000;0.000;2023-05-10T00:20:26;4.90;;;2.70;;
62623;SDS011;48699;0.000;0.000;2023-05-10T00:22:51;10.23;;;2.85;;
62623;SDS011;48699;0.000;0.000;2023-05-10T00:25:16;4.70;;;2.40;;
62623;SDS011;48699;0.000;0.000;2023-05-10T00:27:42;7.63;;;2.72;;
62623;SDS011;48699;0.000;0.000;2023-05-10T00:30:07;6.72;;;3.40;;
62623;SDS011;48699;0.000;0.000;2023-05-10T00:32:33;5.50;;;2.50;;
62623;SDS011;48699;0.000;0.000;2023-05-10T00:34:58;6.28;;;3.08;;
62623;SDS011;48699;0.000;0.000;2023-05-10T00:37:24;4.13;;;2.70;;
62623;SDS011;48699;0.000;0.000;2023-05-10T00:39:49;5.93;;;2.78;;
62623;SDS011;48699;0.000;0.000;2023-05-10T00:42:14;8.20;;;2.78;;
62623;SDS011;48699;0.000;0.000;2023-05-10T00:44:40;6.85;;;3.15;;
62623;SDS011;48699;0.000;0.000;2023-05-10T00:47:05;10.20;;;2.97;;
62623;SDS011;48699;0.000;0.000;2023-05-10T00:49:31;5.80;;;3.10;;
62623;SDS011;48699;0.000;0.000;2023-05-10T00:51:56;6.25;;;3.35;;
62623;SDS011;48699;0.000;0.000;2023-05-10T00:54:22;6.78;;;2.92;;
62623;SDS011;48699;0.000;0.000;2023-05-10T00:56:47;9.50;;;3.28;;
62623;SDS011;48699;0.000;0.000;2023-05-10T00:59:17;10.18;;;3.92;;
62623;SDS011;48699;0.000;0.000;2023-05-10T01:01:43;15.80;;;3.80;;
62623;SDS011;48699;0.000;0.000;2023-05-10T01:04:10;5.97;;;2.95;;
62623;SDS011;48699;0.000;0.000;2023-05-10T01:06:37;7.00;;;3.30;;
62623;SDS011;48699;0.000;0.000;2023-05-10T01:09:03;9.05;;;3.33;;
62623;SDS011;48699;0.000;0.000;2023-05-10T01:11:28;7.10;;;3.17;;
62623;SDS011;48699;0.000;0.000;2023-05-10T01:13:57;9.23;;;3.50;;
62623;SDS011;48699;0.000;0.000;2023-05-10T01:16:23;12.57;;;3.35;;
62623;SDS011;48699;0.000;0.000;2023-05-10T01:18:49;5.15;;;2.92;;
62623;SDS011;48699;0.000;0.000;2023-05-10T01:21:17;6.68;;;3.22;;
62623;SDS011;48699;0.000;0.000;2023-05-10T01:24:00;7.05;;;3.60;;
62623;SDS011;48699;0.000;0.000;2023-05-10T01:29:13;7.85;;;3.53;;
62623;SDS011;48699;0.000;0.000;2023-05-10T01:32:05;7.20;;;3.55;;
62623;SDS011;48699;0.000;0.000;2023-05-10T01:34:56;8.02;;;3.63;;
62623;SDS011;48699;0.000;0.000;2023-05-10T01:37:50;10.02;;;4.18;;
62623;SDS011;48699;0.000;0.000;2023-05-10T01:40:26;5.90;;;3.20;;
62623;SDS011;48699;0.000;0.000;2023-05-10T01:43:03;9.75;;;3.63;;
62623;SDS011;48699;0.000;0.000;2023-05-10T01:45:46;11.77;;;5.03;;
62623;SDS011;48699;0.000;0.000;2023-05-10T01:48:16;8.25;;;3.53;;
62623;SDS011;48699;0.000;0.000;2023-05-10T01:50:43;8.07;;;3.38;;
62623;SDS011;48699;0.000;0.000;2023-05-10T01:55:43;8.23;;;3.95;;
62623;SDS011;48699;0.000;0.000;2023-05-10T01:58:13;9.75;;;3.63;;
62623;SDS011;48699;0.000;0.000;2023-05-10T02:00:40;9.60;;;3.67;;
62623;SDS011;48699;0.000;0.000;2023-05-10T02:03:08;12.38;;;4.10;;
62623;SDS011;48699;0.000;0.000;2023-05-10T02:05:34;11.57;;;3.70;;
62623;SDS011;48699;0.000;0.000;2023-05-10T02:08:00;7.60;;;3.97;;
62623;SDS011;48699;0.000;0.000;2023-05-10T02:10:27;8.68;;;3.75;;
62623;SDS011;48699;0.000;0.000;2023-05-10T02:12:53;7.18;;;3.90;;
62623;SDS011;48699;0.000;0.000;2023-05-10T02:15:21;8.18;;;3.40;;
62623;SDS011;48699;0.000;0.000;2023-05-10T02:17:48;9.98;;;3.85;;
62623;SDS011;48699;0.000;0.000;2023-05-10T02:20:13;7.40;;;3.75;;
62623;SDS011;48699;0.000;0.000;2023-05-10T02:22:40;9.07;;;3.72;;
62623;SDS011;48699;0.000;0.000;2023-05-10T02:25:05;5.40;;;3.22;;
62623;SDS011;48699;0.000;0.000;2023-05-10T02:27:32;8.27;;;3.45;;
62623;SDS011;48699;0.000;0.000;2023-05-10T02:29:58;8.68;;;4.32;;
62623;SDS011;48699;0.000;0.000;2023-05-10T02:32:24;10.05;;;4.50;;
62623;SDS011;48699;0.000;0.000;2023-05-10T02:34:51;7.20;;;3.22;;
62623;SDS011;48699;0.000;0.000;2023-05-10T02:37:18;8.38;;;3.90;;
62623;SDS011;48699;0.000;0.000;2023-05-10T02:39:46;8.13;;;3.75;;
62623;SDS011;48699;0.000;0.000;2023-05-10T02:44:38;7.65;;;4.00;;
62623;SDS011;48699;0.000;0.000;2023-05-10T02:47:06;10.65;;;4.25;;
62623;SDS011;48699;0.000;0.000;2023-05-10T02:49:31;9.88;;;3.53;;
62623;SDS011;48699;0.000;0.000;2023-05-10T02:51:58;7.13;;;4.07;;
62623;SDS011;48699;0.000;0.000;2023-05-10T02:54:27;8.85;;;3.88;;
62623;SDS011;48699;0.000;0.000;2023-05-10T02:56:57;7.30;;;3.88;;
62623;SDS011;48699;0.000;0.000;2023-05-10T02:59:24;8.30;;;3.28;;
62623;SDS011;48699;0.000;0.000;2023-05-10T03:01:49;7.20;;;4.50;;
62623;SDS011;48699;0.000;0.000;2023-05-10T03:04:15;9.85;;;4.47;;
62623;SDS011;48699;0.000;0.000;2023-05-10T03:06:40;10.00;;;4.03;;
62623;SDS011;48699;0.000;0.000;2023-05-10T03:09:06;8.75;;;4.35;;
62623;SDS011;48699;0.000;0.000;2023-05-10T03:16:43;10.10;;;4.35;;
62623;SDS011;48699;0.000;0.000;2023-05-10T03:19:14;8.65;;;4.47;;
62623;SDS011;48699;0.000;0.000;2023-05-10T03:21:44;18.33;;;4.22;;
62623;SDS011;48699;0.000;0.000;2023-05-10T03:24:12;7.60;;;3.90;;
62623;SDS011;48699;0.000;0.000;2023-05-10T03:26:40;7.53;;;3.67;;
62623;SDS011;48699;0.000;0.000;2023-05-10T03:29:08;7.40;;;3.75;;
62623;SDS011;48699;0.000;0.000;2023-05-10T03:31:34;8.35;;;4.13;;
62623;SDS011;48699;0.000;0.000;2023-05-10T03:33:59;9.50;;;4.43;;
62623;SDS011;48699;0.000;0.000;2023-05-10T03:36:25;7.75;;;3.80;;
62623;SDS011;48699;0.000;0.000;2023-05-10T03:38:50;7.25;;;3.65;;
62623;SDS011;48699;0.000;0.000;2023-05-10T03:41:15;11.57;;;4.20;;
62623;SDS011;48699;0.000;0.000;2023-05-10T03:43:41;14.05;;;4.35;;
62623;SDS011;48699;0.000;0.000;2023-05-10T03:46:06;6.68;;;4.28;;
62623;SDS011;48699;0.000;0.000;2023-05-10T03:48:32;8.27;;;3.83;;
62623;SDS011;48699;0.000;0.000;2023-05-10T03:50:57;11.07;;;4.55;;
62623;SDS011;48699;0.000;0.000;2023-05-10T03:53:23;11.90;;;4.30;;
62623;SDS011;48699;0.000;0.000;2023-05-10T03:55:48;9.25;;;4.13;;
62623;SDS011;48699;0.000;0.000;2023-05-10T03:58:14;11.73;;;4.45;;
62623;SDS011;48699;0.000;0.000;2023-05-10T04:00:39;13.40;;;4.45;;
62623;SDS011;48699;0.000;0.000;2023-05-10T04:03:11;9.95;;;4.50;;
62623;SDS011;48699;0.000;0.000;2023-05-10T04:05:37;11.25;;;4.22;;
62623;SDS011;48699;0.000;0.000;2023-05-10T04:08:02;7.90;;;4.53;;
62623;SDS011;48699;0.000;0.000;2023-05-10T04:10:28;9.65;;;3.97;;
62623;SDS011;48699;0.000;0.000;2023-05-10T04:12:53;6.35;;;4.05;;
62623;SDS011;48699;0.000;0.000;2023-05-10T04:15:19;9.48;;;3.88;;
62623;SDS011;48699;0.000;0.000;2023-05-10T04:17:44;6.93;;;3.58;;
62623;SDS011;48699;0.000;0.000;2023-05-10T04:20:10;9.25;;;4.03;;
62623;SDS011;48699;0.000;0.000;2023-05-10T04:22:36;8.77;;;3.95;;
62623;SDS011;48699;0.000;0.000;2023-05-10T04:25:01;10.60;;;4.95;;
62623;SDS011;48699;0.000;0.000;2023-05-10T04:27:26;9.38;;;4.00;;
62623;SDS011;48699;0.000;0.000;2023-05-10T04:29:52;11.57;;;4.93;;
62623;SDS011;48699;0.000;0.000;2023-05-10T04:32:17;8.25;;;4.13;;
62623;SDS011;48699;0.000;0.000;2023-05-10T04:34:43;8.48;;;3.70;;
62623;SDS011;48699;0.000;0.000;2023-05-10T04:37:08;7.93;;;3.67;;
62623;SDS011;48699;0.000;0.000;2023-05-10T04:39:34;7.50;;;3.53;;
62623;SDS011;48699;0.000;0.000;2023-05-10T04:42:00;12.65;;;4.35;;
62623;SDS011;48699;0.000;0.000;2023-05-10T04:44:25;8.57;;;4.65;;
62623;SDS011;48699;0.000;0.000;2023-05-10T04:46:51;6.38;;;3.83;;
62623;SDS011;48699;0.000;0.000;2023-05-10T04:49:16;11.65;;;4.65;;
62623;SDS011;48699;0.000;0.000;2023-05-10T04:51:42;7.95;;;3.60;;
62623;SDS011;48699;0.000;0.000;2023-05-10T04:54:08;7.70;;;3.95;;
62623;SDS011;48699;0.000;0.000;2023-05-10T04:56:33;6.65;;;3.65;;
62623;SDS011;48699;0.000;0.000;2023-05-10T04:58:58;20.98;;;4.60;;
62623;SDS011;48699;0.000;0.000;2023-05-10T05:01:24;7.82;;;4.05;;
62623;SDS011;48699;0.000;0.000;2023-05-10T05:03:49;8.93;;;4.30;;
62623;SDS011;48699;0.000;0.000;2023-05-10T05:06:14;8.65;;;3.78;;
62623;SDS011;48699;0.000;0.000;2023-05-10T05:08:40;16.25;;;4.88;;
62623;SDS011;48699;0.000;0.000;2023-05-10T05:11:05;7.68;;;3.55;;
62623;SDS011;48699;0.000;0.000;2023-05-10T05:13:31;11.20;;;3.97;;
62623;SDS011;48699;0.000;0.000;2023-05-10T05:15:56;10.18;;;4.13;;
62623;SDS011;48699;0.000;0.000;2023-05-10T05:18:21;11.43;;;4.30;;
62623;SDS011;48699;0.000;0.000;2023-05-10T05:20:47;13.75;;;4.15;;
62623;SDS011;48699;0.000;0.000;2023-05-10T05:23:12;9.90;;;4.80;;
62623;SDS011;48699;0.000;0.000;2023-05-10T05:25:37;6.93;;;3.42;;
62623;SDS011;48699;0.000;0.000;2023-05-10T05:28:03;9.25;;;4.43;;
62623;SDS011;48699;0.000;0.000;2023-05-10T05:30:29;7.80;;;4.22;;
62623;SDS011;48699;0.000;0.000;2023-05-10T05:32:54;9.93;;;4.47;;
62623;SDS011;48699;0.000;0.000;2023-05-10T05:35:19;15.63;;;4.18;;
62623;SDS011;48699;0.000;0.000;2023-05-10T05:37:45;6.90;;;3.65;;
62623;SDS011;48699;0.000;0.000;2023-05-10T05:40:12;8.10;;;3.90;;
62623;SDS011;48699;0.000;0.000;2023-05-10T05:42:38;10.00;;;4.88;;
62623;SDS011;48699;0.000;0.000;2023-05-10T05:45:03;10.25;;;3.58;;
62623;SDS011;48699;0.000;0.000;2023-05-10T05:47:29;9.05;;;3.50;;
62623;SDS011;48699;0.000;0.000;2023-05-10T05:49:54;6.90;;;3.63;;
62623;SDS011;48699;0.000;0.000;2023-05-10T05:52:20;9.07;;;3.63;;
62623;SDS011;48699;0.000;0.000;2023-05-10T05:54:46;9.93;;;4.43;;
62623;SDS011;48699;0.000;0.000;2023-05-10T05:57:11;7.15;;;3.38;;
62623;SDS011;48699;0.000;0.000;2023-05-10T05:59:37;7.95;;;3.67;;
62623;SDS011;48699;0.000;0.000;2023-05-10T06:02:06;8.80;;;3.63;;
62623;SDS011;48699;0.000;0.000;2023-05-10T06:04:32;13.77;;;4.53;;
62623;SDS011;48699;0.000;0.000;2023-05-10T06:06:58;8.90;;;3.63;;
62623;SDS011;48699;0.000;0.000;2023-05-10T06:09:23;10.48;;;3.95;;
62623;SDS011;48699;0.000;0.000;2023-05-10T06:11:49;10.38;;;4.35;;
62623;SDS011;48699;0.000;0.000;2023-05-10T06:14:14;7.82;;;3.92;;
62623;SDS011;48699;0.000;0.000;2023-05-10T06:16:40;7.93;;;3.40;;
62623;SDS011;48699;0.000;0.000;2023-05-10T06:19:05;30.77;;;4.45;;
62623;SDS011;48699;0.000;0.000;2023-05-10T06:21:31;13.20;;;3.92;;
62623;SDS011;48699;0.000;0.000;2023-05-10T06:23:56;9.02;;;4.03;;
62623;SDS011;48699;0.000;0.000;2023-05-10T06:26:22;7.28;;;3.38;;
62623;SDS011;48699;0.000;0.000;2023-05-10T06:28:47;9.30;;;4.38;;
62623;SDS011;48699;0.000;0.000;2023-05-10T06:31:12;5.60;;;3.47;;
62623;SDS011;48699;0.000;0.000;2023-05-10T06:33:38;22.20;;;3.88;;
62623;SDS011;48699;0.000;0.000;2023-05-10T06:36:03;7.75;;;3.55;;
62623;SDS011;48699;0.000;0.000;2023-05-10T06:38:29;9.57;;;3.67;;
62623;SDS011;48699;0.000;0.000;2023-05-10T06:40:54;12.70;;;4.50;;
62623;SDS011;48699;0.000;0.000;2023-05-10T06:43:20;7.28;;;3.72;;
62623;SDS011;48699;0.000;0.000;2023-05-10T06:45:45;13.55;;;4.25;;
62623;SDS011;48699;0.000;0.000;2023-05-10T06:48:11;9.32;;;3.65;;
62623;SDS011;48699;0.000;0.000;2023-05-10T06:50:36;9.65;;;3.60;;
62623;SDS011;48699;0.000;0.000;2023-05-10T06:53:01;13.40;;;4.68;;
62623;SDS011;48699;0.000;0.000;2023-05-10T06:55:27;9.65;;;3.30;;
62623;SDS011;48699;0.000;0.000;2023-05-10T06:57:53;10.35;;;3.75;;
62623;SDS011;48699;0.000;0.000;2023-05-10T07:00:18;12.57;;;3.50;;
62623;SDS011;48699;0.000;0.000;2023-05-10T07:02:44;7.40;;;4.20;;
62623;SDS011;48699;0.000;0.000;2023-05-10T07:05:10;14.27;;;3.88;;
62623;SDS011;48699;0.000;0.000;2023-05-10T07:07:35;8.65;;;4.20;;
62623;SDS011;48699;0.000;0.000;2023-05-10T07:10:01;16.83;;;5.05;;
62623;SDS011;48699;0.000;0.000;2023-05-10T07:12:26;9.60;;;4.03;;
62623;SDS011;48699;0.000;0.000;2023-05-10T07:14:52;32.95;;;5.13;;
62623;SDS011;48699;0.000;0.000;2023-05-10T07:17:17;11.77;;;3.55;;
62623;SDS011;48699;0.000;0.000;2023-05-10T07:19:42;13.05;;;4.40;;
62623;SDS011;48699;0.000;0.000;2023-05-10T07:22:08;9.85;;;4.25;;
62623;SDS011;48699;0.000;0.000;2023-05-10T07:24:33;18.45;;;3.95;;
62623;SDS011;48699;0.000;0.000;2023-05-10T07:26:59;21.08;;;4.78;;
62623;SDS011;48699;0.000;0.000;2023-05-10T07:29:24;42.60;;;6.47;;
62623;SDS011;48699;0.000;0.000;2023-05-10T07:31:49;14.75;;;4.30;;
62623;SDS011;48699;0.000;0.000;2023-05-10T07:34:15;9.65;;;3.70;;
62623;SDS011;48699;0.000;0.000;2023-05-10T07:36:40;19.75;;;4.10;;
62623;SDS011;48699;0.000;0.000;2023-05-10T07:39:06;12.05;;;4.55;;
62623;SDS011;48699;0.000;0.000;2023-05-10T07:41:31;20.02;;;4.05;;
62623;SDS011;48699;0.000;0.000;2023-05-10T07:43:57;15.18;;;4.40;;
62623;SDS011;48699;0.000;0.000;2023-05-10T07:46:22;34.35;;;4.85;;
62623;SDS011;48699;0.000;0.000;2023-05-10T07:48:48;10.85;;;3.67;;
62623;SDS011;48699;0.000;0.000;2023-05-10T07:51:13;10.75;;;4.10;;
62623;SDS011;48699;0.000;0.000;2023-05-10T07:53:38;14.68;;;4.10;;
62623;SDS011;48699;0.000;0.000;2023-05-10T07:58:50;11.80;;;4.15;;
62623;SDS011;48699;0.000;0.000;2023-05-10T08:01:16;30.80;;;4.55;;
62623;SDS011;48699;0.000;0.000;2023-05-10T08:03:41;26.20;;;5.00;;
62623;SDS011;48699;0.000;0.000;2023-05-10T08:06:06;10.40;;;3.90;;
62623;SDS011;48699;0.000;0.000;2023-05-10T08:08:32;13.02;;;4.85;;
62623;SDS011;48699;0.000;0.000;2023-05-10T08:10:57;13.40;;;4.97;;
62623;SDS011;48699;0.000;0.000;2023-05-10T08:13:22;8.38;;;3.92;;
62623;SDS011;48699;0.000;0.000;2023-05-10T08:15:47;10.15;;;4.65;;
62623;SDS011;48699;0.000;0.000;2023-05-10T08:18:13;9.50;;;4.57;;
62623;SDS011;48699;0.000;0.000;2023-05-10T08:20:38;8.30;;;4.20;;
62623;SDS011;48699;0.000;0.000;2023-05-10T08:23:04;10.98;;;4.50;;
62623;SDS011;48699;0.000;0.000;2023-05-10T08:25:29;9.52;;;4.93;;
62623;SDS011;48699;0.000;0.000;2023-05-10T08:27:54;6.57;;;4.05;;
62623;SDS011;48699;0.000;0.000;2023-05-10T08:30:20;11.88;;;4.25;;
62623;SDS011;48699;0.000;0.000;2023-05-10T08:32:45;10.20;;;5.07;;
62623;SDS011;48699;0.000;0.000;2023-05-10T08:35:10;18.30;;;5.28;;
62623;SDS011;48699;0.000;0.000;2023-05-10T08:37:36;9.68;;;4.90;;
62623;SDS011;48699;0.000;0.000;2023-05-10T08:40:01;8.57;;;4.55;;
62623;SDS011;48699;0.000;0.000;2023-05-10T08:42:28;10.30;;;4.77;;
62623;SDS011;48699;0.000;0.000;2023-05-10T08:44:55;12.52;;;5.45;;
62623;SDS011;48699;0.000;0.000;2023-05-10T08:47:22;11.77;;;4.68;;
62623;SDS011;48699;0.000;0.000;2023-05-10T08:49:47;8.93;;;5.40;;
62623;SDS011;48699;0.000;0.000;2023-05-10T08:52:16;9.35;;;4.55;;
62623;SDS011;48699;0.000;0.000;2023-05-10T08:54:41;10.73;;;5.20;;
62623;SDS011;48699;0.000;0.000;2023-05-10T08:57:07;8.80;;;4.70;;
62623;SDS011;48699;0.000;0.000;2023-05-10T08:59:32;10.82;;;5.53;;
62623;SDS011;48699;0.000;0.000;2023-05-10T09:01:58;9.77;;;5.25;;
62623;SDS011;48699;0.000;0.000;2023-05-10T09:04:24;21.27;;;5.72;;
62623;SDS011;48699;0.000;0.000;2023-05-10T09:06:50;8.95;;;5.13;;
62623;SDS011;48699;0.000;0.000;2023-05-10T09:09:15;9.48;;;5.25;;
62623;SDS011;48699;0.000;0.000;2023-05-10T09:11:42;8.63;;;5.82;;
62623;SDS011;48699;0.000;0.000;2023-05-10T09:14:08;13.67;;;5.73;;
62623;SDS011;48699;0.000;0.000;2023-05-10T09:16:34;8.77;;;5.13;;
62623;SDS011;48699;0.000;0.000;2023-05-10T09:18:59;10.93;;;4.80;;
62623;SDS011;48699;0.000;0.000;2023-05-10T09:21:25;10.77;;;5.00;;
62623;SDS011;48699;0.000;0.000;2023-05-10T09:23:50;12.32;;;5.55;;
62623;SDS011;48699;0.000;0.000;2023-05-10T09:26:21;14.52;;;5.57;;
62623;SDS011;48699;0.000;0.000;2023-05-10T09:28:51;15.07;;;5.80;;
62623;SDS011;48699;0.000;0.000;2023-05-10T09:31:18;16.08;;;5.75;;
62623;SDS011;48699;0.000;0.000;2023-05-10T09:33:44;14.05;;;6.47;;
62623;SDS011;48699;0.000;0.000;2023-05-10T09:36:12;11.77;;;5.28;;
62623;SDS011;48699;0.000;0.000;2023-05-10T09:38:45;10.00;;;5.63;;
62623;SDS011;48699;0.000;0.000;2023-05-10T09:41:23;15.25;;;5.43;;
62623;SDS011;48699;0.000;0.000;2023-05-10T09:43:50;10.00;;;5.90;;
62623;SDS011;48699;0.000;0.000;2023-05-10T09:46:16;10.85;;;5.93;;
62623;SDS011;48699;0.000;0.000;2023-05-10T09:48:42;11.13;;;5.95;;
62623;SDS011;48699;0.000;0.000;2023-05-10T09:51:09;15.93;;;6.68;;
62623;SDS011;48699;0.000;0.000;2023-05-10T09:53:34;12.52;;;6.45;;
62623;SDS011;48699;0.000;0.000;2023-05-10T09:56:00;11.98;;;6.47;;
62623;SDS011;48699;0.000;0.000;2023-05-10T09:58:25;13.10;;;6.97;;
62623;SDS011;48699;0.000;0.000;2023-05-10T10:00:50;12.75;;;6.95;;
62623;SDS011;48699;0.000;0.000;2023-05-10T10:03:19;11.45;;;6.85;;
62623;SDS011;48699;0.000;0.000;2023-05-10T10:05:45;11.82;;;7.35;;
62623;SDS011;48699;0.000;0.000;2023-05-10T10:08:12;16.02;;;7.93;;
62623;SDS011;48699;0.000;0.000;2023-05-10T10:10:38;13.00;;;7.10;;
62623;SDS011;48699;0.000;0.000;2023-05-10T10:13:05;18.40;;;7.93;;
62623;SDS011;48699;0.000;0.000;2023-05-10T10:15:31;15.15;;;8.45;;
62623;SDS011;48699;0.000;0.000;2023-05-10T10:17:57;15.52;;;8.45;;
62623;SDS011;48699;0.000;0.000;2023-05-10T10:20:23;14.73;;;7.80;;
62623;SDS011;48699;0.000;0.000;2023-05-10T10:22:50;15.83;;;8.07;;
62623;SDS011;48699;0.000;0.000;2023-05-10T10:25:15;17.95;;;8.40;;
62623;SDS011;48699;0.000;0.000;2023-05-10T10:27:52;13.90;;;7.72;;
62623;SDS011;48699;0.000;0.000;2023-05-10T10:30:40;17.73;;;8.10;;
62623;SDS011;48699;0.000;0.000;2023-05-10T10:36:01;13.57;;;7.10;;
62623;SDS011;48699;0.000;0.000;2023-05-10T10:39:28;13.17;;;7.87;;
62623;SDS011;48699;0.000;0.000;2023-05-10T10:47:10;12.77;;;7.70;;
62623;SDS011;48699;0.000;0.000;2023-05-10T11:02:47;11.75;;;7.15;;
62623;SDS011;48699;0.000;0.000;2023-05-10T11:10:22;12.88;;;8.27;;
62623;SDS011;48699;0.000;0.000;2023-05-10T11:13:01;14.18;;;7.68;;
62623;SDS011;48699;0.000;0.000;2023-05-10T11:15:34;12.55;;;6.53;;
62623;SDS011;48699;0.000;0.000;2023-05-10T11:18:15;12.68;;;7.40;;
62623;SDS011;48699;0.000;0.000;2023-05-10T11:21:00;13.95;;;7.80;;
62623;SDS011;48699;0.000;0.000;2023-05-10T11:26:11;9.82;;;6.18;;
62623;SDS011;48699;0.000;0.000;2023-05-10T11:28:41;12.45;;;6.90;;
62623;SDS011;48699;0.000;0.000;2023-05-10T11:31:10;11.07;;;6.38;;
62623;SDS011;48699;0.000;0.000;2023-05-10T11:33:44;11.40;;;6.22;;
62623;SDS011;48699;0.000;0.000;2023-05-10T11:36:17;10.00;;;6.40;;
62623;SDS011;48699;0.000;0.000;2023-05-10T11:38:44;9.88;;;6.15;;
62623;SDS011;48699;0.000;0.000;2023-05-10T11:41:10;13.90;;;7.43;;
62623;SDS011;48699;0.000;0.000;2023-05-10T11:43:36;9.13;;;5.45;;
62623;SDS011;48699;0.000;0.000;2023-05-10T11:46:04;10.20;;;5.90;;
62623;SDS011;48699;0.000;0.000;2023-05-10T11:48:31;14.35;;;6.90;;
62623;SDS011;48699;0.000;0.000;2023-05-10T11:50:56;12.18;;;6.53;;
62623;SDS011;48699;0.000;0.000;2023-05-10T11:53:22;10.93;;;5.57;;
62623;SDS011;48699;0.000;0.000;2023-05-10T11:55:48;10.13;;;5.43;;
62623;SDS011;48699;0.000;0.000;2023-05-10T11:58:13;10.35;;;4.70;;
62623;SDS011;48699;0.000;0.000;2023-05-10T12:00:39;9.00;;;4.80;;
62623;SDS011;48699;0.000;0.000;2023-05-10T12:03:04;8.65;;;4.97;;
62623;SDS011;48699;0.000;0.000;2023-05-10T12:05:31;10.13;;;5.20;;
62623;SDS011;48699;0.000;0.000;2023-05-10T12:08:10;6.70;;;4.15;;
62623;SDS011;48699;0.000;0.000;2023-05-10T12:10:36;8.73;;;5.20;;
62623;SDS011;48699;0.000;0.000;2023-05-10T12:13:01;9.07;;;4.68;;
62623;SDS011;48699;0.000;0.000;2023-05-10T12:15:28;9.17;;;4.90;;
62623;SDS011;48699;0.000;0.000;2023-05-10T12:17:53;8.75;;;5.53;;
62623;SDS011;48699;0.000;0.000;2023-05-10T12:22:52;8.85;;;4.63;;
62623;SDS011;48699;0.000;0.000;2023-05-10T12:25:19;9.45;;;4.30;;
62623;SDS011;48699;0.000;0.000;2023-05-10T12:27:52;8.23;;;5.40;;
62623;SDS011;48699;0.000;0.000;2023-05-10T12:30:20;9.30;;;5.35;;
62623;SDS011;48699;0.000;0.000;2023-05-10T12:32:46;8.45;;;4.85;;
62623;SDS011;48699;0.000;0.000;2023-05-10T12:35:12;10.05;;;4.43;;
62623;SDS011;48699;0.000;0.000;2023-05-10T12:37:37;8.23;;;4.93;;
62623;SDS011;48699;0.000;0.000;2023-05-10T12:40:06;7.65;;;4.78;;
62623;SDS011;48699;0.000;0.000;2023-05-10T12:42:36;11.85;;;5.47;;
62623;SDS011;48699;0.000;0.000;2023-05-10T12:45:02;13.38;;;6.38;;
62623;SDS011;48699;0.000;0.000;2023-05-10T12:47:28;8.73;;;5.47;;
62623;SDS011;48699;0.000;0.000;2023-05-10T12:49:53;9.90;;;5.68;;
62623;SDS011;48699;0.000;0.000;2023-05-10T12:52:19;8.93;;;5.35;;
62623;SDS011;48699;0.000;0.000;2023-05-10T12:54:45;8.68;;;5.40;;
62623;SDS011;48699;0.000;0.000;2023-05-10T12:57:11;10.25;;;5.07;;
62623;SDS011;48699;0.000;0.000;2023-05-10T12:59:36;7.57;;;4.47;;
62623;SDS011;48699;0.000;0.000;2023-05-10T13:02:02;9.50;;;4.93;;
62623;SDS011;48699;0.000;0.000;2023-05-10T13:04:27;9.95;;;5.15;;
62623;SDS011;48699;0.000;0.000;2023-05-10T13:06:52;8.55;;;4.25;;
62623;SDS011;48699;0.000;0.000;2023-05-10T13:09:18;9.23;;;5.00;;
62623;SDS011;48699;0.000;0.000;2023-05-10T13:11:43;9.25;;;4.80;;
62623;SDS011;48699;0.000;0.000;2023-05-10T13:14:10;8.10;;;4.43;;
62623;SDS011;48699;0.000;0.000;2023-05-10T13:16:35;7.70;;;4.18;;
62623;SDS011;48699;0.000;0.000;2023-05-10T13:19:00;7.78;;;4.40;;
62623;SDS011;48699;0.000;0.000;2023-05-10T13:21:26;6.05;;;3.58;;
62623;SDS011;48699;0.000;0.000;2023-05-10T13:23:51;6.18;;;3.67;;
62623;SDS011;48699;0.000;0.000;2023-05-10T13:26:17;6.72;;;4.03;;
62623;SDS011;48699;0.000;0.000;2023-05-10T13:28:43;8.18;;;3.95;;
62623;SDS011;48699;0.000;0.000;2023-05-10T13:31:08;6.47;;;3.63;;
62623;SDS011;48699;0.000;0.000;2023-05-10T13:33:34;7.13;;;3.53;;
62623;SDS011;48699;0.000;0.000;2023-05-10T13:35:59;7.97;;;3.95;;
62623;SDS011;48699;0.000;0.000;2023-05-10T13:38:25;6.20;;;3.75;;
62623;SDS011;48699;0.000;0.000;2023-05-10T13:40:50;6.75;;;3.55;;
62623;SDS011;48699;0.000;0.000;2023-05-10T13:43:17;6.53;;;3.45;;
62623;SDS011;48699;0.000;0.000;2023-05-10T13:45:43;5.88;;;3.30;;
62623;SDS011;48699;0.000;0.000;2023-05-10T13:48:08;6.80;;;3.33;;
62623;SDS011;48699;0.000;0.000;2023-05-10T13:50:34;6.50;;;3.45;;
62623;SDS011;48699;0.000;0.000;2023-05-10T13:52:59;6.43;;;3.08;;
62623;SDS011;48699;0.000;0.000;2023-05-10T13:55:25;11.50;;;4.38;;
62623;SDS011;48699;0.000;0.000;2023-05-10T13:57:50;6.18;;;2.97;;
62623;SDS011;48699;0.000;0.000;2023-05-10T14:00:15;6.53;;;3.53;;
62623;SDS011;48699;0.000;0.000;2023-05-10T14:02:41;7.82;;;2.90;;
62623;SDS011;48699;0.000;0.000;2023-05-10T14:05:06;5.90;;;3.33;;
62623;SDS011;48699;0.000;0.000;2023-05-10T14:07:32;7.97;;;3.72;;
62623;SDS011;48699;0.000;0.000;2023-05-10T14:09:58;5.97;;;3.28;;
62623;SDS011;48699;0.000;0.000;2023-05-10T14:12:23;5.55;;;3.22;;
62623;SDS011;48699;0.000;0.000;2023-05-10T14:14:48;5.10;;;2.53;;
62623;SDS011;48699;0.000;0.000;2023-05-10T14:17:14;7.18;;;2.70;;
62623;SDS011;48699;0.000;0.000;2023-05-10T14:19:39;4.97;;;2.90;;
62623;SDS011;48699;0.000;0.000;2023-05-10T14:22:05;5.95;;;3.45;;
62623;SDS011;48699;0.000;0.000;2023-05-10T14:24:30;5.15;;;3.08;;
62623;SDS011;48699;0.000;0.000;2023-05-10T14:26:56;6.88;;;3.17;;
62623;SDS011;48699;0.000;0.000;2023-05-10T14:29:21;10.63;;;4.03;;
62623;SDS011;48699;0.000;0.000;2023-05-10T14:31:47;7.22;;;3.67;;
62623;SDS011;48699;0.000;0.000;2023-05-10T14:34:12;7.75;;;3.83;;
62623;SDS011;48699;0.000;0.000;2023-05-10T14:36:37;7.60;;;3.15;;
62623;SDS011;48699;0.000;0.000;2023-05-10T14:39:03;6.00;;;3.55;;
62623;SDS011;48699;0.000;0.000;2023-05-10T14:41:29;6.70;;;4.00;;
62623;SDS011;48699;0.000;0.000;2023-05-10T14:43:55;7.88;;;3.92;;
62623;SDS011;48699;0.000;0.000;2023-05-10T14:46:20;6.72;;;3.28;;
62623;SDS011;48699;0.000;0.000;2023-05-10T14:48:45;11.63;;;4.00;;
62623;SDS011;48699;0.000;0.000;2023-05-10T14:51:11;6.97;;;3.47;;
62623;SDS011;48699;0.000;0.000;2023-05-10T14:53:36;6.35;;;3.38;;
62623;SDS011;48699;0.000;0.000;2023-05-10T14:56:02;9.88;;;4.10;;
62623;SDS011;48699;0.000;0.000;2023-05-10T14:58:28;7.68;;;3.53;;
62623;SDS011;48699;0.000;0.000;2023-05-10T15:00:53;8.57;;;3.33;;
62623;SDS011;48699;0.000;0.000;2023-05-10T15:03:18;7.15;;;3.90;;
62623;SDS011;48699;0.000;0.000;2023-05-10T15:05:44;7.35;;;3.47;;
62623;SDS011;48699;0.000;0.000;2023-05-10T15:08:09;7.78;;;4.07;;
62623;SDS011;48699;0.000;0.000;2023-05-10T15:10:35;6.68;;;3.85;;
62623;SDS011;48699;0.000;0.000;2023-05-10T15:13:01;7.53;;;3.05;;
62623;SDS011;48699;0.000;0.000;2023-05-10T15:15:28;7.65;;;4.20;;
62623;SDS011;48699;0.000;0.000;2023-05-10T15:17:53;7.55;;;3.60;;
62623;SDS011;48699;0.000;0.000;2023-05-10T15:20:18;8.38;;;3.95;;
62623;SDS011;48699;0.000;0.000;2023-05-10T15:22:44;13.70;;;4.50;;
62623;SDS011;48699;0.000;0.000;2023-05-10T15:25:09;6.50;;;3.40;;
62623;SDS011;48699;0.000;0.000;2023-05-10T15:27:35;7.78;;;3.22;;
62623;SDS011;48699;0.000;0.000;2023-05-10T15:30:00;6.13;;;3.03;;
62623;SDS011;48699;0.000;0.000;2023-05-10T15:32:26;11.38;;;3.17;;
62623;SDS011;48699;0.000;0.000;2023-05-10T15:34:51;7.10;;;3.40;;
62623;SDS011;48699;0.000;0.000;2023-05-10T15:37:17;7.40;;;3.30;;
62623;SDS011;48699;0.000;0.000;2023-05-10T15:39:42;9.00;;;3.08;;